createdAt,value
2023-01-03T00:02:49.958Z,19.90
2023-01-03T00:13:14.307Z,18.60
2023-01-03T00:23:38.689Z,22.80
2023-01-03T00:34:03.021Z,21.50
2023-01-03T00:44:27.283Z,21.60
2023-01-03T00:54:51.459Z,20.40
2023-01-03T01:05:15.880Z,18.30
2023-01-03T01:15:40.319Z,18.20
2023-01-03T01:26:06.093Z,17.60
2023-01-03T01:36:33.277Z,13.20
2023-01-03T01:46:57.591Z,14.10
2023-01-03T01:57:24.416Z,16.30
2023-01-03T02:07:50.483Z,16.90
2023-01-03T02:18:42.069Z,18.80
2023-01-03T02:29:35.627Z,17.40
2023-01-03T02:40:08.423Z,14.60
2023-01-03T02:50:42.849Z,15.90
2023-01-03T03:01:10.186Z,14.20
2023-01-03T03:11:56.805Z,17.50
2023-01-03T03:22:47.778Z,15.90
2023-01-03T03:33:15.318Z,14.50
2023-01-03T03:44:07.055Z,16.60
2023-01-03T03:54:35.685Z,17.00
2023-01-03T04:05:05.342Z,15.20
2023-01-03T04:15:29.791Z,16.00
2023-01-03T04:25:54.119Z,16.20
2023-01-03T04:36:18.320Z,14.90
2023-01-03T04:46:45.163Z,15.80
2023-01-03T04:57:13.337Z,18.50
2023-01-03T05:07:37.527Z,16.30
2023-01-03T05:18:01.989Z,22.70
2023-01-03T05:28:26.247Z,18.50
2023-01-03T05:38:50.435Z,15.80
2023-01-03T05:49:14.692Z,15.70
2023-01-03T05:59:38.904Z,17.50
2023-01-03T06:10:03.218Z,20.40
2023-01-03T06:20:27.959Z,16.00
2023-01-03T06:30:52.629Z,16.70
2023-01-03T06:41:17.398Z,19.70
2023-01-03T06:52:00.237Z,19.60
2023-01-03T07:02:24.774Z,16.10
2023-01-03T07:13:07.560Z,19.80
2023-01-03T07:23:31.748Z,21.00
2023-01-03T07:33:56.947Z,23.00
2023-01-03T07:44:21.304Z,22.80
2023-01-03T07:54:45.658Z,26.60
2023-01-03T08:05:10.726Z,24.00
2023-01-03T08:15:35.033Z,36.50
2023-01-03T08:26:03.000Z,34.80
2023-01-03T08:36:31.934Z,34.00
2023-01-03T08:46:59.032Z,29.60
2023-01-03T08:57:23.242Z,24.10
2023-01-03T09:07:47.431Z,27.90
2023-01-03T09:18:12.170Z,30.20
2023-01-03T09:28:36.447Z,42.80
2023-01-03T09:39:00.655Z,20.70
2023-01-03T09:49:25.165Z,18.50
2023-01-03T10:00:07.896Z,18.30
2023-01-03T10:10:41.305Z,20.40
2023-01-03T10:21:08.964Z,15.70
2023-01-03T10:31:48.767Z,13.50
2023-01-03T10:42:18.229Z,15.60
2023-01-03T10:52:42.519Z,16.80
2023-01-03T11:03:19.154Z,16.70
2023-01-03T11:13:43.468Z,15.80
2023-01-03T11:24:23.209Z,11.00
2023-01-03T11:35:25.963Z,14.50
2023-01-03T11:46:07.447Z,10.30
2023-01-03T11:56:34.759Z,8.20
2023-01-03T12:18:02.318Z,9.70
2023-01-03T12:28:33.122Z,20.30
2023-01-03T12:39:06.469Z,28.00
2023-01-03T12:49:35.300Z,20.60
2023-01-03T13:00:21.243Z,24.20
2023-01-03T13:10:50.343Z,22.60
2023-01-03T13:21:49.679Z,16.40
2023-01-03T13:32:25.358Z,10.20
2023-01-03T13:43:00.616Z,9.30
2023-01-03T13:53:36.441Z,9.00
2023-01-03T14:04:22.599Z,6.20
2023-01-03T14:14:53.002Z,4.60
2023-01-03T14:25:32.922Z,9.60
2023-01-03T14:36:04.116Z,11.90
2023-01-03T14:46:30.623Z,11.70
2023-01-03T14:56:55.757Z,10.20
2023-01-03T15:07:33.155Z,9.70
2023-01-03T15:18:02.144Z,15.00
2023-01-03T15:28:28.979Z,11.50
2023-01-03T15:38:53.327Z,9.50
2023-01-03T15:49:21.457Z,11.90
2023-01-03T15:59:47.199Z,15.50
2023-01-03T16:10:12.464Z,15.50
2023-01-03T16:20:36.829Z,13.50
2023-01-03T16:31:04.359Z,10.40
2023-01-03T16:41:28.730Z,9.50
2023-01-03T16:51:57.542Z,9.20
2023-01-03T17:02:22.464Z,11.10
2023-01-03T17:12:47.038Z,12.90
2023-01-03T17:23:11.733Z,10.20
2023-01-03T17:33:35.992Z,17.60
2023-01-03T17:44:00.207Z,31.90
2023-01-03T17:54:27.651Z,26.30
2023-01-03T18:15:36.770Z,23.10
2023-01-03T18:26:03.104Z,20.20
2023-01-03T18:36:29.190Z,25.30
2023-01-03T18:46:53.609Z,38.80
2023-01-03T18:57:18.283Z,47.40
2023-01-03T19:07:43.629Z,64.20
2023-01-03T19:18:10.553Z,63.40
2023-01-03T19:28:35.087Z,55.20
2023-01-03T19:38:59.387Z,70.80
2023-01-03T19:49:23.929Z,72.70
2023-01-03T19:59:51.555Z,119.40
2023-01-03T20:10:20.948Z,85.10
2023-01-03T20:20:45.507Z,90.70
2023-01-03T20:31:11.275Z,68.50
2023-01-03T20:41:37.467Z,137.80
2023-01-03T20:52:01.756Z,84.80
2023-01-03T21:02:26.159Z,88.30
2023-01-03T21:12:50.946Z,113.90
2023-01-03T21:23:17.741Z,75.50
2023-01-03T21:33:41.944Z,99.50
2023-01-03T21:44:07.107Z,68.90
2023-01-03T21:54:31.539Z,63.60
2023-01-03T22:04:55.858Z,44.90
2023-01-03T22:15:20.669Z,61.60
2023-01-03T22:25:44.887Z,84.90
2023-01-03T22:36:10.503Z,88.60
2023-01-03T22:46:34.976Z,91.60
2023-01-03T22:56:59.465Z,83.80
2023-01-03T23:07:23.682Z,84.20
2023-01-03T23:17:57.207Z,78.50
2023-01-03T23:28:22.387Z,89.00
2023-01-03T23:38:47.139Z,74.50
2023-01-03T23:49:12.474Z,73.70
2023-01-03T23:59:36.713Z,73.00
